createdAt,value
2022-09-30T00:01:08.359Z,13.95
2022-09-30T00:04:17.783Z,13.98
2022-09-30T00:07:20.054Z,13.95
2022-09-30T00:10:22.722Z,14.05
2022-09-30T00:13:24.967Z,13.94
2022-09-30T00:16:30.580Z,13.89
2022-09-30T00:19:32.842Z,13.92
2022-09-30T00:22:35.905Z,14.03
2022-09-30T00:25:38.145Z,13.94
2022-09-30T00:28:40.961Z,13.94
2022-09-30T00:31:44.570Z,13.97
2022-09-30T00:34:47.388Z,14.03
2022-09-30T00:37:50.147Z,14.01
2022-09-30T00:40:52.908Z,13.98
2022-09-30T00:43:55.175Z,13.96
2022-09-30T00:46:58.833Z,13.95
2022-09-30T00:50:07.424Z,13.94
2022-09-30T00:53:13.871Z,13.95
2022-09-30T00:56:21.626Z,13.95
2022-09-30T00:59:27.154Z,13.96
2022-09-30T01:02:29.382Z,13.97
2022-09-30T01:05:33.007Z,13.97
2022-09-30T01:08:37.135Z,13.99
2022-09-30T01:11:40.213Z,13.96
2022-09-30T01:14:45.099Z,13.99
2022-09-30T01:17:55.235Z,13.95
2022-09-30T01:20:57.480Z,13.96
2022-09-30T01:24:35.561Z,13.96
2022-09-30T01:27:37.805Z,14.01
2022-09-30T01:30:43.304Z,14.02
2022-09-30T01:33:55.722Z,14.02
2022-09-30T01:37:13.547Z,14.03
2022-09-30T01:40:34.021Z,14.03
2022-09-30T01:43:45.503Z,14.06
2022-09-30T01:46:56.865Z,14.10
2022-09-30T01:49:59.619Z,14.11
2022-09-30T01:53:33.210Z,14.09
2022-09-30T01:56:42.176Z,14.03
2022-09-30T01:59:47.259Z,14.03
2022-09-30T02:02:56.392Z,14.14
2022-09-30T02:06:07.587Z,14.15
2022-09-30T02:09:24.122Z,14.08
2022-09-30T02:12:29.232Z,14.08
2022-09-30T02:15:39.715Z,14.04
2022-09-30T02:18:47.853Z,14.08
2022-09-30T02:21:56.926Z,14.11
2022-09-30T02:25:01.629Z,14.04
2022-09-30T02:28:08.533Z,14.01
2022-09-30T02:31:11.701Z,14.01
2022-09-30T02:34:34.488Z,13.99
2022-09-30T02:37:39.480Z,13.99
2022-09-30T02:40:44.011Z,14.12
2022-09-30T02:43:46.587Z,13.99
2022-09-30T02:46:57.727Z,13.96
2022-09-30T02:50:07.257Z,13.97
2022-09-30T02:53:09.852Z,13.96
2022-09-30T02:56:21.443Z,13.99
2022-09-30T02:59:25.980Z,14.04
2022-09-30T03:02:28.990Z,14.00
2022-09-30T03:05:31.737Z,14.05
2022-09-30T03:08:34.925Z,14.16
2022-09-30T03:11:38.390Z,14.05
2022-09-30T03:15:13.253Z,14.09
2022-09-30T03:18:18.094Z,14.00
2022-09-30T03:21:23.666Z,13.96
2022-09-30T03:24:32.257Z,13.98
2022-09-30T03:28:00.255Z,14.05
2022-09-30T03:31:10.569Z,13.94
2022-09-30T03:34:21.491Z,13.96
2022-09-30T03:37:45.501Z,14.00
2022-09-30T03:41:14.007Z,13.96
2022-09-30T03:44:23.737Z,13.99
2022-09-30T03:47:29.640Z,14.00
2022-09-30T03:50:33.660Z,14.04
2022-09-30T03:53:42.963Z,14.04
2022-09-30T03:56:45.497Z,14.08
2022-09-30T03:59:48.027Z,14.09
2022-09-30T04:02:52.679Z,14.09
2022-09-30T04:05:58.379Z,14.11
2022-09-30T04:09:00.922Z,14.12
2022-09-30T04:12:03.857Z,14.11
2022-09-30T04:15:06.457Z,14.12
2022-09-30T04:18:10.213Z,14.27
2022-09-30T04:21:13.601Z,14.19
2022-09-30T04:24:16.098Z,14.14
2022-09-30T04:27:18.496Z,14.20
2022-09-30T04:30:25.019Z,14.16
2022-09-30T04:33:30.866Z,14.15
2022-09-30T04:36:33.382Z,14.15
2022-09-30T04:39:36.137Z,14.18
2022-09-30T04:42:39.332Z,14.22
2022-09-30T04:45:45.140Z,14.29
2022-09-30T04:48:48.680Z,14.27
2022-09-30T04:51:51.091Z,14.26
2022-09-30T04:54:54.280Z,14.29
2022-09-30T04:57:56.696Z,14.34
2022-09-30T05:01:02.310Z,14.46
2022-09-30T05:04:05.047Z,14.39
2022-09-30T05:07:08.969Z,14.43
2022-09-30T05:10:11.990Z,14.38
2022-09-30T05:13:15.190Z,14.38
2022-09-30T05:16:18.361Z,14.39
2022-09-30T05:19:21.203Z,14.41
2022-09-30T05:22:24.813Z,14.45
2022-09-30T05:25:27.447Z,14.49
2022-09-30T05:28:31.371Z,14.53
2022-09-30T05:31:34.068Z,14.56
2022-09-30T05:34:38.244Z,14.60
2022-09-30T05:37:40.748Z,14.64
2022-09-30T05:40:43.199Z,14.72
2022-09-30T05:43:46.726Z,14.73
2022-09-30T05:46:50.395Z,14.78
2022-09-30T05:49:55.972Z,14.79
2022-09-30T05:52:59.072Z,14.85
2022-09-30T05:56:01.719Z,14.77
2022-09-30T05:59:07.242Z,14.75
2022-09-30T06:02:10.679Z,14.75
2022-09-30T06:05:13.395Z,14.75
2022-09-30T06:08:15.878Z,14.74
2022-09-30T06:11:20.389Z,14.77
2022-09-30T06:14:22.904Z,14.78
2022-09-30T06:17:25.652Z,14.80
2022-09-30T06:20:28.043Z,14.80
2022-09-30T06:23:31.975Z,14.79
2022-09-30T06:26:34.241Z,14.80
2022-09-30T06:29:37.111Z,14.80
2022-09-30T06:32:39.375Z,14.80
2022-09-30T06:35:42.793Z,14.83
2022-09-30T06:38:45.595Z,14.89
2022-09-30T06:41:48.467Z,14.96
2022-09-30T06:44:55.414Z,14.98
2022-09-30T06:48:01.635Z,15.01
2022-09-30T06:51:04.373Z,15.03
2022-09-30T06:54:09.189Z,15.06
2022-09-30T06:57:11.557Z,15.11
2022-09-30T07:00:16.919Z,15.12
2022-09-30T07:03:29.379Z,15.14
2022-09-30T07:06:32.103Z,15.14
2022-09-30T07:09:34.504Z,15.07
2022-09-30T07:12:37.207Z,15.11
2022-09-30T07:15:43.712Z,15.11
2022-09-30T07:18:46.598Z,15.15
2022-09-30T07:21:49.924Z,15.24
2022-09-30T07:24:53.141Z,15.22
2022-09-30T07:27:56.648Z,15.19
2022-09-30T07:31:30.815Z,15.21
2022-09-30T07:34:25.201Z,15.16
2022-09-30T07:37:28.036Z,15.06
2022-09-30T07:40:31.418Z,15.10
2022-09-30T07:43:40.072Z,15.13
2022-09-30T07:46:44.534Z,15.13
2022-09-30T07:49:47.701Z,15.09
2022-09-30T07:52:50.316Z,15.16
2022-09-30T07:55:53.159Z,15.13
2022-09-30T07:58:56.271Z,15.06
2022-09-30T08:01:59.124Z,15.10
2022-09-30T08:05:01.772Z,15.09
2022-09-30T08:08:04.620Z,15.13
2022-09-30T08:11:07.609Z,15.28
2022-09-30T08:14:17.518Z,15.34
2022-09-30T08:17:20.359Z,15.23
2022-09-30T08:20:22.952Z,15.31
2022-09-30T08:23:28.047Z,15.32
2022-09-30T08:26:31.220Z,15.44
2022-09-30T08:29:53.932Z,15.50
2022-09-30T08:32:56.225Z,15.45
2022-09-30T08:36:18.375Z,15.14
2022-09-30T08:39:20.859Z,15.08
2022-09-30T08:42:36.654Z,15.01
2022-09-30T08:46:00.663Z,15.04
2022-09-30T08:49:19.375Z,15.03
2022-09-30T08:52:37.276Z,14.95
2022-09-30T08:55:43.906Z,15.07
2022-09-30T08:58:48.340Z,15.13
2022-09-30T09:01:53.599Z,15.19
2022-09-30T09:05:00.971Z,15.22
2022-09-30T09:08:03.485Z,15.27
2022-09-30T09:11:17.916Z,15.36
2022-09-30T09:14:32.827Z,15.46
2022-09-30T09:17:38.532Z,15.48
2022-09-30T09:20:45.083Z,15.85
2022-09-30T09:23:48.870Z,16.23
2022-09-30T09:26:53.358Z,16.37
2022-09-30T09:29:55.828Z,16.55
2022-09-30T09:33:01.253Z,16.77
2022-09-30T09:36:22.541Z,16.84
2022-09-30T09:39:25.121Z,16.90
2022-09-30T09:42:27.722Z,17.08
2022-09-30T09:45:41.056Z,16.74
2022-09-30T09:48:44.839Z,16.92
2022-09-30T09:51:59.307Z,17.11
2022-09-30T09:55:02.430Z,17.09
2022-09-30T09:58:14.130Z,17.31
2022-09-30T10:01:32.882Z,17.29
2022-09-30T10:04:51.094Z,16.94
2022-09-30T10:08:08.574Z,16.65
2022-09-30T10:11:20.374Z,16.26
2022-09-30T10:14:23.071Z,16.29
2022-09-30T10:17:30.883Z,16.28
2022-09-30T10:20:34.952Z,16.30
2022-09-30T10:23:38.734Z,16.33
2022-09-30T10:26:48.467Z,16.51
2022-09-30T10:29:52.701Z,16.67
2022-09-30T10:32:55.180Z,16.88
2022-09-30T10:36:00.702Z,16.89
2022-09-30T10:39:07.348Z,16.98
2022-09-30T10:42:16.480Z,17.01
2022-09-30T10:45:20.831Z,16.87
2022-09-30T10:48:24.548Z,16.96
2022-09-30T10:51:33.790Z,16.94
2022-09-30T10:54:39.966Z,16.95
2022-09-30T10:57:42.400Z,17.02
2022-09-30T11:00:45.835Z,17.07
2022-09-30T11:04:07.630Z,17.12
2022-09-30T11:07:17.056Z,17.32
2022-09-30T11:10:23.554Z,17.77
2022-09-30T11:13:31.979Z,18.36
2022-09-30T11:16:45.919Z,19.19
2022-09-30T11:19:53.344Z,19.21
2022-09-30T11:23:02.758Z,18.60
2022-09-30T11:26:05.293Z,18.14
2022-09-30T11:29:13.887Z,17.95
2022-09-30T11:32:19.346Z,18.20
2022-09-30T11:35:21.792Z,18.26
2022-09-30T11:38:35.265Z,18.04
2022-09-30T11:41:52.754Z,17.96
2022-09-30T11:45:18.255Z,17.70
2022-09-30T11:48:35.442Z,17.58
2022-09-30T11:52:00.946Z,17.64
2022-09-30T11:55:42.139Z,18.17
2022-09-30T11:58:47.745Z,18.85
2022-09-30T12:01:52.868Z,19.87
2022-09-30T12:04:58.078Z,20.39
2022-09-30T12:08:05.904Z,20.37
2022-09-30T12:11:10.984Z,20.42
2022-09-30T12:14:33.846Z,20.72
2022-09-30T12:17:43.213Z,20.85
2022-09-30T12:20:51.618Z,21.65
2022-09-30T12:24:02.711Z,22.47
2022-09-30T12:27:10.696Z,23.08
2022-09-30T12:30:19.096Z,23.27
2022-09-30T12:33:50.133Z,23.67
2022-09-30T12:36:58.566Z,24.09
2022-09-30T12:40:22.656Z,24.52
2022-09-30T12:43:31.331Z,24.76
2022-09-30T12:46:36.807Z,24.58
2022-09-30T12:49:42.552Z,24.27
2022-09-30T12:52:45.223Z,23.94
2022-09-30T12:55:48.239Z,24.20
2022-09-30T12:58:52.217Z,24.42
2022-09-30T13:01:55.578Z,24.69
2022-09-30T13:05:18.928Z,24.78
2022-09-30T13:08:25.458Z,24.76
2022-09-30T13:11:38.166Z,24.88
2022-09-30T13:14:44.576Z,24.96
2022-09-30T13:17:47.077Z,24.71
2022-09-30T13:20:49.561Z,24.73
2022-09-30T13:23:52.039Z,24.72
2022-09-30T13:27:07.395Z,24.82
2022-09-30T13:30:15.802Z,24.80
2022-09-30T13:33:29.986Z,24.41
2022-09-30T13:36:44.744Z,23.84
2022-09-30T13:39:50.000Z,22.94
2022-09-30T13:42:54.197Z,22.51
2022-09-30T13:45:59.015Z,22.53
2022-09-30T13:49:14.126Z,22.53
2022-09-30T13:52:25.153Z,22.75
2022-09-30T13:55:34.251Z,22.55
2022-09-30T13:58:52.782Z,22.10
2022-09-30T14:02:04.676Z,21.36
2022-09-30T14:05:19.657Z,20.79
2022-09-30T14:08:25.022Z,20.72
2022-09-30T14:11:36.340Z,20.91
2022-09-30T14:14:57.627Z,21.14
2022-09-30T14:18:22.965Z,21.20
2022-09-30T14:21:37.816Z,21.10
2022-09-30T14:24:40.568Z,20.95
2022-09-30T14:27:43.086Z,20.71
2022-09-30T14:31:05.694Z,20.56
2022-09-30T14:34:09.581Z,20.54
2022-09-30T14:37:18.948Z,20.27
2022-09-30T14:40:30.234Z,19.96
2022-09-30T14:43:40.355Z,19.76
2022-09-30T14:46:49.263Z,19.52
2022-09-30T14:49:51.795Z,19.26
2022-09-30T14:52:58.607Z,18.94
2022-09-30T14:56:01.747Z,18.81
2022-09-30T14:59:26.956Z,18.83
2022-09-30T15:02:29.897Z,18.66
2022-09-30T15:05:35.889Z,18.59
2022-09-30T15:08:38.431Z,18.45
2022-09-30T15:11:41.515Z,18.41
2022-09-30T15:14:52.031Z,18.38
2022-09-30T15:17:55.801Z,18.33
2022-09-30T15:21:05.377Z,18.35
2022-09-30T15:24:10.892Z,18.32
2022-09-30T15:27:21.708Z,18.26
2022-09-30T15:30:26.826Z,18.19
2022-09-30T15:33:31.885Z,18.16
2022-09-30T15:36:35.802Z,18.07
2022-09-30T15:40:04.643Z,18.04
2022-09-30T15:43:13.903Z,18.04
2022-09-30T15:46:27.684Z,17.98
2022-09-30T15:49:43.775Z,17.92
2022-09-30T15:52:47.143Z,17.89
2022-09-30T15:55:50.844Z,17.85
2022-09-30T15:59:01.505Z,17.89
2022-09-30T16:02:04.195Z,17.77
2022-09-30T16:05:07.406Z,17.75
2022-09-30T16:08:10.333Z,17.66
2022-09-30T16:11:20.557Z,17.56
2022-09-30T16:14:24.824Z,17.60
2022-09-30T16:17:33.553Z,17.44
2022-09-30T16:20:36.110Z,17.36
2022-09-30T16:23:38.697Z,17.31
2022-09-30T16:26:45.425Z,17.23
2022-09-30T16:29:48.022Z,17.19
2022-09-30T16:32:51.942Z,17.14
2022-09-30T16:35:56.806Z,17.12
2022-09-30T16:38:59.261Z,17.01
2022-09-30T16:42:04.451Z,16.96
2022-09-30T16:45:07.411Z,16.91
2022-09-30T16:48:16.979Z,16.89
2022-09-30T16:51:21.918Z,16.84
2022-09-30T16:54:24.993Z,16.82
2022-09-30T16:57:27.552Z,16.78
2022-09-30T17:00:30.489Z,16.72
2022-09-30T17:03:32.967Z,16.69
2022-09-30T17:06:37.183Z,16.65
2022-09-30T17:09:39.688Z,16.64
2022-09-30T17:12:42.201Z,16.61
2022-09-30T17:15:48.914Z,16.56
2022-09-30T17:18:51.917Z,16.52
2022-09-30T17:21:54.394Z,16.51
2022-09-30T17:24:57.051Z,16.47
2022-09-30T17:28:00.174Z,16.44
2022-09-30T17:31:03.323Z,16.42
2022-09-30T17:34:09.042Z,16.47
2022-09-30T17:37:13.456Z,16.41
2022-09-30T17:40:35.248Z,16.40
2022-09-30T17:43:37.894Z,16.32
2022-09-30T17:46:41.727Z,16.26
2022-09-30T17:49:44.189Z,16.26
2022-09-30T17:52:47.424Z,16.19
2022-09-30T17:56:00.579Z,16.17
2022-09-30T17:59:03.181Z,16.10
2022-09-30T18:02:05.761Z,16.02
2022-09-30T18:05:08.662Z,15.97
2022-09-30T18:08:13.799Z,15.88
2022-09-30T18:11:20.726Z,15.83
2022-09-30T18:14:23.037Z,15.75
2022-09-30T18:17:25.867Z,15.70
2022-09-30T18:20:28.147Z,15.65
2022-09-30T18:23:30.901Z,15.60
2022-09-30T18:26:35.903Z,15.54
2022-09-30T18:29:39.343Z,15.48
2022-09-30T18:32:42.276Z,15.44
2022-09-30T18:35:46.946Z,15.36
2022-09-30T18:38:49.331Z,15.30
2022-09-30T18:41:52.388Z,15.31
2022-09-30T18:44:54.899Z,15.31
2022-09-30T18:47:58.730Z,15.31
2022-09-30T18:51:04.357Z,15.31
2022-09-30T18:54:07.688Z,15.32
2022-09-30T18:57:09.910Z,15.32
2022-09-30T19:00:12.784Z,15.33
2022-09-30T19:03:16.375Z,15.32
2022-09-30T19:06:19.525Z,15.29
2022-09-30T19:09:21.809Z,15.25
2022-09-30T19:12:27.539Z,15.26
2022-09-30T19:15:30.238Z,15.23
2022-09-30T19:18:33.999Z,15.25
2022-09-30T19:21:37.228Z,15.27
2022-09-30T19:24:43.162Z,15.25
2022-09-30T19:28:16.837Z,15.26
2022-09-30T19:31:28.570Z,15.27
2022-09-30T19:38:46.987Z,15.23
2022-09-30T19:41:53.942Z,15.25
2022-09-30T19:44:56.280Z,15.28
2022-09-30T19:48:01.611Z,15.27
2022-09-30T19:51:11.684Z,15.25
2022-09-30T19:54:14.670Z,15.25
2022-09-30T19:57:17.111Z,15.29
2022-09-30T20:00:21.337Z,15.28
2022-09-30T20:03:25.579Z,15.32
2022-09-30T20:06:28.809Z,15.30
2022-09-30T20:09:31.570Z,15.27
2022-09-30T20:12:34.170Z,15.25
2022-09-30T20:15:51.318Z,15.24
2022-09-30T20:18:53.887Z,15.26
2022-09-30T20:21:56.561Z,15.25
2022-09-30T20:24:59.128Z,15.26
2022-09-30T20:28:04.142Z,15.26
2022-09-30T20:31:07.954Z,15.26
2022-09-30T20:34:14.680Z,15.23
2022-09-30T20:37:17.689Z,15.22
2022-09-30T20:40:23.562Z,15.18
2022-09-30T20:43:34.376Z,15.22
2022-09-30T20:46:46.915Z,15.24
2022-09-30T20:49:49.786Z,15.23
2022-09-30T20:52:55.727Z,15.21
2022-09-30T20:56:01.782Z,15.24
2022-09-30T20:59:06.971Z,15.23
2022-09-30T21:02:12.130Z,15.27
2022-09-30T21:05:15.246Z,15.26
2022-09-30T21:08:17.841Z,15.23
2022-09-30T21:11:22.310Z,15.31
2022-09-30T21:14:24.755Z,15.27
2022-09-30T21:17:28.599Z,15.21
2022-09-30T21:20:31.541Z,15.18
2022-09-30T21:23:34.908Z,15.22
2022-09-30T21:26:37.475Z,15.18
2022-09-30T21:29:40.017Z,15.11
2022-09-30T21:32:43.745Z,15.06
2022-09-30T21:35:47.059Z,15.08
2022-09-30T21:38:50.346Z,15.07
2022-09-30T21:41:53.480Z,15.12
2022-09-30T21:44:56.202Z,15.09
2022-09-30T21:48:02.558Z,15.07
2022-09-30T21:51:05.795Z,15.08
2022-09-30T21:54:10.166Z,15.05
2022-09-30T21:57:12.753Z,15.06
2022-09-30T22:00:16.276Z,15.06
2022-09-30T22:03:19.217Z,15.04
2022-09-30T22:06:21.683Z,15.04
2022-09-30T22:09:24.506Z,15.01
2022-09-30T22:12:26.709Z,15.01
2022-09-30T22:15:29.682Z,14.98
2022-09-30T22:18:32.967Z,14.98
2022-09-30T22:21:37.168Z,14.98
2022-09-30T22:24:40.989Z,15.00
2022-09-30T22:27:43.867Z,14.99
2022-09-30T22:30:46.780Z,14.97
2022-09-30T22:34:09.424Z,14.99
2022-09-30T22:37:30.055Z,15.01
2022-09-30T22:40:33.288Z,14.97
2022-09-30T22:43:36.169Z,14.97
2022-09-30T22:46:39.441Z,14.98
2022-09-30T22:49:48.882Z,14.94
2022-09-30T22:52:51.843Z,14.96
2022-09-30T22:56:10.066Z,14.96
2022-09-30T22:59:31.784Z,14.95
2022-09-30T23:02:40.522Z,14.91
2022-09-30T23:05:43.298Z,14.87
2022-09-30T23:08:56.997Z,14.85
2022-09-30T23:12:29.148Z,14.80
2022-09-30T23:15:31.628Z,14.81
2022-09-30T23:22:05.633Z,14.78
2022-09-30T23:25:09.005Z,14.77
2022-09-30T23:28:11.825Z,14.73
2022-09-30T23:31:15.641Z,14.72
2022-09-30T23:34:18.321Z,14.70
2022-09-30T23:37:20.906Z,14.70
2022-09-30T23:40:23.300Z,14.69
2022-09-30T23:43:26.600Z,14.76
2022-09-30T23:46:29.271Z,14.77
2022-09-30T23:49:35.006Z,14.79
2022-09-30T23:52:37.554Z,14.80
2022-09-30T23:55:40.899Z,14.80
2022-09-30T23:58:44.313Z,14.84
